DONNELLS (DON)

Elevation: 4835' · STANISLAUS R basin · Operator: US Bureau of Reclamation

Provisional data, subject to change.
Query executed Monday at 12:36:23   clock

Select a sensor type for a plot of data.
Note: Reservoir Flows are daily averages.

Earlier

Date STORAGE    RES CHG    OUTFLOW   
 AF   AF   CFS  
03/01/2015 19015 155 100
03/02/2015 19197 182 86
03/03/2015 19350 153 81
03/04/2015 19491 141 88
03/05/2015 19635 144 90
03/06/2015 19768 133 93
03/07/2015 19951 183 97
03/08/2015 20105 154 84
03/09/2015 20256 151 98
03/10/2015 20423 167 83
03/11/2015 20587 164 88
03/12/2015 20815 228 59
03/13/2015 20957 142 99
03/14/2015 21105 148 113
03/15/2015 21334 229 99
03/16/2015 21634 300 95
03/17/2015 21942 308 88
03/18/2015 22253 311 82
03/19/2015 22552 299 80
03/20/2015 22860 308 77
03/21/2015 23147 287 87
03/22/2015 23400 253 93
03/23/2015 23704 304 82
03/24/2015 23965 261 85
03/25/2015 24182 217 82
03/26/2015 24406 224 81
03/27/2015 24645 239 94
03/28/2015 24990 345 55
03/29/2015 25333 343 76
03/30/2015 -- -- --

Later | Latest

Warning! This data is preliminary and subject to revision.

Show DON Map | Plot DON Data | 1 Month DON Data | Real-Time DON Data | DON Info